首页
METAR-TAF:

METAR-TAF

机场 :

利摩日, 法国

纬度: 45-52N, 经度: 001-11E, 海拔: 396米

当前天气观测

该预报发布于40分钟前的20:00 UTC
风速2节,风向多变
温度 5°C
湿度 100%
气压 1006 hPa
能见度10公里或以上
多云层高于3900英尺
多云层高于4600英尺
阴天层高于5200英尺

METAR: LFBL 122000Z AUTO VRB02KT 9999 BKN039 BKN046 OVC052 05/05 Q1006 BECMG 0600 FG VV///

时间: 21:40 (20:40 UTC)

预报

该预报发布于1小时和56分钟前的18:44 UTC
预报有效从12日的 18点(UTC)到 13日的 18点(UTC)
风速3节,风向西转西南
能见度10公里或以上
多云层高于3000英尺
成为
从 12日的 18点(UTC)到 12日的 21点(UTC)
风速2节,风向多变
能見度: 3000
多云层高于200英尺
轻雾
成为
从 12日的 21点(UTC)到 12日的 24点(UTC)
能見度: 0600
短暂存在
从 13日的 00点(UTC)到 13日的 08点(UTC)
能見度: 0400
几率 40% :
短暂存在
从 13日的 00点(UTC)到 13日的 06点(UTC)
能見度: 0200
成为
从 13日的 09点(UTC)到 13日的 11点(UTC)
能見度: 6000
多云层高于500英尺
成为
从 13日的 11点(UTC)到 13日的 13点(UTC)
多云层高于1200英尺
短暂存在
从 13日的 13点(UTC)到 13日的 18点(UTC)
散云层高于2000英尺

TAF: LFBL 121844Z 1218/1318 24003KT 9999 BKN030 BECMG 1218/1221 VRB02KT 3000 BR BKN002 BECMG 1221/1224 0600 FG VV/// TEMPO 1300/1308 0400 FG VV/// PROB40 TEMPO 1300/1306 0200 FG VV/// BECMG 1309/1311 6000 NSW BKN005 BECMG 1311/1313 BKN012 TEMPO 1313/1318 SCT020

超过4000个机场的气象观测和天气预报(METAR&TAF报告)。

可查询的气象台以黄色和红色小点在地图上表示。

将鼠标移到小点上方,可查看气象台名称。

然后点击查看天气观测和预报。

如需切换地图:点击带黑十字的绿色按钮放大地图;点击带横线的绿色按钮缩小地图;或者点击绿色箭头查看邻近地区的地图。


METAR-TAF: